Time;durP1;ratioP1;P1;durP2;ratioP2;P2;SDS_P1;SDS_P2;PMS_P1;PMS_P2;Temp;Humidity;BMP_temperature;BMP_pressure;BME280_temperature;BME280_humidity;BME280_pressure;Samples;Min_cycle;Max_cycle;Signal;HPM_P1;HPM_P2
2022/08/27 00:01:54;;;;;;;19.20;11.00;;;;;;;23.43;69.40;100975.38;4942987;29;20178;-66
2022/08/27 00:04:19;;;;;;;13.17;8.30;;;;;;;23.08;70.16;100980.28;4943264;29;20515;-65
2022/08/27 00:06:45;;;;;;;11.40;8.30;;;;;;;23.37;69.80;100979.16;4942850;29;20487;-66
2022/08/27 00:09:10;;;;;;;12.80;7.23;;;;;;;23.39;69.11;100977.28;4942849;29;20178;-66
2022/08/27 00:11:36;;;;;;;13.70;8.83;;;;;;;23.16;70.72;100984.38;4943202;29;20193;-66
2022/08/27 00:14:02;;;;;;;15.33;8.27;;;;;;;23.67;68.86;100982.34;4942569;29;20185;-65
2022/08/27 00:16:28;;;;;;;11.80;7.50;;;;;;;23.44;68.96;100985.09;4942766;29;20220;-66
2022/08/27 00:18:54;;;;;;;9.13;7.40;;;;;;;23.55;68.92;100980.19;4943145;29;20398;-66
2022/08/27 00:21:20;;;;;;;11.77;8.40;;;;;;;23.49;69.00;100983.09;4942704;29;20170;-66
2022/08/27 00:23:45;;;;;;;15.50;8.40;;;;;;;23.82;67.71;100977.34;4942283;29;20469;-66
2022/08/27 00:26:11;;;;;;;12.43;8.30;;;;;;;23.74;68.09;100974.13;4943046;29;20181;-66
2022/08/27 00:28:37;;;;;;;11.37;8.73;;;;;;;23.54;68.17;100973.16;4942477;29;20232;-67
2022/08/27 00:31:02;;;;;;;11.33;7.93;;;;;;;24.05;66.76;100963.06;4925914;29;20457;-65
2022/08/27 00:33:29;;;;;;;16.70;9.50;;;;;;;23.87;67.18;100965.56;4942583;29;20174;-67
2022/08/27 00:35:55;;;;;;;10.10;8.27;;;;;;;23.17;69.77;100974.63;4942342;29;20184;-65
2022/08/27 00:38:21;;;;;;;14.73;8.33;;;;;;;22.96;70.61;100960.34;4942331;29;20437;-65
2022/08/27 00:40:47;;;;;;;12.33;8.70;;;;;;;23.47;69.55;100958.38;4942663;29;20212;-66
2022/08/27 00:43:13;;;;;;;11.83;8.20;;;;;;;23.58;67.82;100957.94;4942152;29;20827;-65
2022/08/27 00:45:40;;;;;;;13.80;9.50;;;;;;;23.44;68.42;100956.69;4942293;29;20237;-65
2022/08/27 00:48:09;;;;;;;10.70;7.97;;;;;;;23.65;68.34;100960.28;4926211;29;20181;-65
2022/08/27 00:50:37;;;;;;;10.43;7.50;;;;;;;23.42;69.20;100968.31;4925732;29;20421;-66
2022/08/27 00:53:07;;;;;;;12.67;9.57;;;;;;;23.48;68.98;100963.63;4925397;29;20457;-66
2022/08/27 00:55:37;;;;;;;10.70;9.10;;;;;;;23.67;68.22;100963.72;4925540;29;20436;-66
2022/08/27 00:58:17;;;;;;;11.47;7.07;;;;;;;23.86;67.85;100963.81;4941694;29;20661;-66
2022/08/27 01:00:44;;;;;;;11.67;9.60;;;;;;;23.68;68.90;100970.78;4925476;29;20722;-66
2022/08/27 01:03:10;;;;;;;12.53;10.27;;;;;;;23.84;68.14;100970.13;4941703;29;20429;-66
2022/08/27 01:05:37;;;;;;;16.30;10.80;;;;;;;23.40;70.10;100976.38;4941860;29;20869;-66
2022/08/27 01:08:07;;;;;;;14.13;10.63;;;;;;;22.80;71.96;100976.00;4941727;29;20178;-66
2022/08/27 01:10:32;;;;;;;17.20;10.67;;;;;;;22.65;72.41;100980.09;4925590;29;20510;-66
2022/08/27 01:12:58;;;;;;;14.40;9.60;;;;;;;23.68;68.63;100980.59;4925074;29;20983;-66
2022/08/27 01:15:26;;;;;;;16.23;10.70;;;;;;;22.87;71.27;100983.69;4925187;29;20443;-66
2022/08/27 01:17:52;;;;;;;16.90;10.43;;;;;;;22.96;70.89;100990.47;4925634;29;20484;-67
2022/08/27 01:20:21;;;;;;;10.27;8.53;;;;;;;23.51;69.61;100999.88;4924978;29;20432;-66
2022/08/27 01:22:58;;;;;;;13.07;10.27;;;;;;;23.47;69.01;100996.47;4941447;29;20449;-65
2022/08/27 01:25:24;;;;;;;14.13;10.10;;;;;;;23.28;70.34;100998.16;4925022;29;20453;-67
2022/08/27 01:27:50;;;;;;;14.93;10.87;;;;;;;22.88;71.19;101008.50;4924988;29;20508;-66
2022/08/27 01:30:19;;;;;;;17.20;12.03;;;;;;;22.69;71.31;101010.94;4925354;29;20520;-66
2022/08/27 01:32:45;;;;;;;16.37;10.47;;;;;;;23.55;68.52;101012.13;4941242;29;20792;-66
2022/08/27 01:35:13;;;;;;;13.90;10.27;;;;;;;23.35;69.29;101005.84;4941416;29;20811;-66
2022/08/27 01:37:40;;;;;;;21.10;10.63;;;;;;;23.79;67.42;101009.41;4941742;29;20425;-66
2022/08/27 01:40:07;;;;;;;18.93;12.83;;;;;;;23.76;67.57;101005.09;4941101;29;20756;-65
2022/08/27 01:42:41;;;;;;;10.10;8.10;;;;;;;23.87;67.32;101001.97;4941193;29;20427;-66
2022/08/27 01:45:10;;;;;;;14.73;11.73;;;;;;;23.02;70.28;101007.97;4924700;29;20429;-66
2022/08/27 01:47:36;;;;;;;12.30;10.13;;;;;;;23.38;69.64;101005.72;4941201;29;20400;-66
2022/08/27 01:50:14;;;;;;;15.23;11.60;;;;;;;23.44;68.57;101004.59;4941729;29;20500;-66
2022/08/27 01:52:40;;;;;;;15.77;11.57;;;;;;;22.78;71.25;101009.75;4941146;29;20484;-65
2022/08/27 01:55:07;;;;;;;24.37;12.23;;;;;;;22.96;69.68;101003.75;4941154;29;20429;-66
2022/08/27 01:57:34;;;;;;;14.00;9.57;;;;;;;23.87;67.24;101002.81;4941129;29;20188;-66
2022/08/27 02:00:01;;;;;;;16.10;11.63;;;;;;;23.61;67.39;101006.59;4941007;29;20492;-66
2022/08/27 02:02:27;;;;;;;18.50;12.33;;;;;;;23.00;69.84;101008.03;4941640;29;20398;-66
2022/08/27 02:04:52;;;;;;;16.90;11.10;;;;;;;23.12;69.85;101001.34;4940728;29;20815;-66
2022/08/27 02:07:18;;;;;;;11.50;9.53;;;;;;;23.51;68.92;101000.75;4940853;29;20232;-65
2022/08/27 02:09:43;;;;;;;14.23;11.67;;;;;;;23.55;67.71;100993.50;4940827;29;20475;-65
2022/08/27 02:12:09;;;;;;;22.47;12.37;;;;;;;23.28;69.06;100984.84;4940779;29;20651;-66
2022/08/27 02:14:34;;;;;;;19.43;10.93;;;;;;;23.74;66.85;100980.31;4940629;29;20603;-66
2022/08/27 02:17:00;;;;;;;14.47;9.93;;;;;;;23.22;68.95;100977.97;4941327;29;20173;-65
2022/08/27 02:19:26;;;;;;;17.70;11.77;;;;;;;23.57;68.13;100982.81;4940844;29;20544;-66
2022/08/27 02:21:51;;;;;;;19.50;12.07;;;;;;;23.52;68.18;100977.69;4940670;29;20261;-66
2022/08/27 02:24:17;;;;;;;11.27;8.50;;;;;;;24.20;65.67;100970.38;4940498;29;20469;-66
2022/08/27 02:26:42;;;;;;;9.93;8.80;;;;;;;23.78;66.37;100976.59;4940659;29;20212;-66
2022/08/27 02:29:08;;;;;;;16.13;10.97;;;;;;;23.03;69.24;100977.81;4941006;29;20181;-67
2022/08/27 02:31:33;;;;;;;13.53;10.23;;;;;;;23.02;69.52;100978.72;4940499;29;20213;-65
2022/08/27 02:33:59;;;;;;;16.03;11.10;;;;;;;22.90;70.27;100985.38;4940532;29;20177;-66
2022/08/27 02:36:25;;;;;;;14.60;10.93;;;;;;;22.96;69.92;100978.94;4941204;29;20535;-65
2022/08/27 02:38:50;;;;;;;18.50;11.40;;;;;;;22.94;69.37;100983.47;4940565;29;20284;-65
2022/08/27 02:41:16;;;;;;;17.57;11.33;;;;;;;22.80;70.28;100986.63;4940547;29;20225;-65
2022/08/27 02:43:42;;;;;;;17.00;10.70;;;;;;;22.93;69.32;100987.06;4941078;29;20257;-65
2022/08/27 02:46:10;;;;;;;15.03;10.70;;;;;;;22.85;70.20;100982.91;4940837;29;20886;-65
2022/08/27 02:48:37;;;;;;;13.67;9.40;;;;;;;23.63;67.51;100985.22;4940517;29;20457;-66
2022/08/27 02:51:04;;;;;;;19.57;13.40;;;;;;;23.10;69.01;100995.25;4940857;29;20468;-66
2022/08/27 02:53:31;;;;;;;19.40;11.90;;;;;;;22.88;69.49;100993.41;4940318;29;20433;-66
2022/08/27 02:55:56;;;;;;;16.90;10.00;;;;;;;23.20;68.16;100994.00;4940443;29;20424;-66
2022/08/27 02:58:21;;;;;;;24.00;12.73;;;;;;;23.19;68.73;100989.59;4940752;29;20417;-66
2022/08/27 03:00:47;;;;;;;16.67;12.40;;;;;;;22.67;69.17;100992.41;4940448;29;20178;-65
2022/08/27 03:03:12;;;;;;;14.80;11.97;;;;;;;23.20;67.76;100991.34;4940280;29;20174;-66
2022/08/27 03:05:38;;;;;;;14.17;10.53;;;;;;;23.15;68.62;100988.00;4940801;29;20189;-66
2022/08/27 03:08:05;;;;;;;15.20;11.00;;;;;;;23.12;67.70;100985.41;4940327;29;20178;-66
2022/08/27 03:10:31;;;;;;;16.83;12.30;;;;;;;23.27;66.55;100985.78;4940295;29;20428;-66
2022/08/27 03:12:57;;;;;;;13.80;9.30;;;;;;;23.66;66.57;100988.59;4940608;29;20465;-65
2022/08/27 03:15:23;;;;;;;16.07;11.77;;;;;;;23.36;66.78;100990.72;4940395;29;20252;-65
2022/08/27 03:20:36;;;;;;;16.33;11.63;;;;;;;23.19;67.91;100988.72;4942643;29;20428;-66
2022/08/27 03:23:01;;;;;;;19.57;10.53;;;;;;;23.68;66.63;100981.44;4943519;29;20504;-66
2022/08/27 03:25:26;;;;;;;19.90;12.50;;;;;;;23.04;67.88;100990.16;4943759;29;20516;-66
2022/08/27 03:27:52;;;;;;;15.00;11.70;;;;;;;23.25;67.55;100987.63;4943805;29;20207;-65
2022/08/27 03:30:19;;;;;;;17.43;13.00;;;;;;;22.81;68.33;100983.06;4943815;29;20595;-66
2022/08/27 03:32:45;;;;;;;11.60;9.80;;;;;;;23.74;66.47;100977.66;4926926;29;20213;-66
2022/08/27 03:35:11;;;;;;;13.57;9.70;;;;;;;24.08;65.03;100981.56;4943485;29;20435;-65
2022/08/27 03:37:36;;;;;;;14.17;11.33;;;;;;;23.50;65.61;100983.06;4944031;29;20182;-66
2022/08/27 03:40:03;;;;;;;13.90;11.63;;;;;;;23.78;65.00;100989.91;4943364;29;20209;-66
2022/08/27 03:42:28;;;;;;;17.30;11.00;;;;;;;23.93;65.00;100984.91;4943658;29;20204;-65
2022/08/27 03:44:53;;;;;;;17.47;12.60;;;;;;;23.93;64.74;100985.75;4943683;29;20441;-65
2022/08/27 03:47:21;;;;;;;15.47;11.63;;;;;;;22.76;68.46;100990.34;4943347;29;20178;-65
2022/08/27 03:49:46;;;;;;;16.90;11.90;;;;;;;23.05;67.61;100992.75;4943179;29;20274;-66
2022/08/27 03:52:13;;;;;;;15.80;11.37;;;;;;;23.36;67.32;100988.91;4943910;29;20465;-65
2022/08/27 03:54:38;;;;;;;19.83;13.33;;;;;;;23.42;66.91;100992.28;4943157;29;20197;-65
2022/08/27 03:57:04;;;;;;;19.80;11.40;;;;;;;23.32;67.22;100995.28;4943383;29;20516;-65
2022/08/27 03:59:30;;;;;;;16.30;10.30;;;;;;;23.44;66.92;100988.63;4943545;29;20174;-65
2022/08/27 04:01:56;;;;;;;12.37;10.53;;;;;;;23.63;66.02;100977.25;4926699;29;20436;-65
2022/08/27 04:04:25;;;;;;;13.87;12.43;;;;;;;23.38;65.96;100987.09;4942821;29;20428;-66
2022/08/27 04:06:50;;;;;;;18.33;11.93;;;;;;;23.45;65.67;100984.16;4943750;29;20528;-65
2022/08/27 04:09:16;;;;;;;13.77;11.50;;;;;;;23.76;65.15;100985.56;4942893;29;20424;-65
2022/08/27 04:11:42;;;;;;;15.30;12.53;;;;;;;22.99;67.08;100982.38;4942891;29;20213;-65
2022/08/27 04:14:08;;;;;;;13.60;11.40;;;;;;;23.49;65.61;100986.66;4943291;29;20417;-65
2022/08/27 04:16:34;;;;;;;14.37;10.87;;;;;;;23.79;64.43;100980.13;4942881;29;20181;-65
2022/08/27 04:19:00;;;;;;;13.50;11.20;;;;;;;24.00;63.31;100973.03;4942756;29;20418;-65
2022/08/27 04:21:26;;;;;;;18.63;11.40;;;;;;;23.76;64.93;100978.47;4942919;29;20692;-66
2022/08/27 04:23:51;;;;;;;13.17;10.87;;;;;;;24.30;62.46;100978.84;4942465;29;20481;-64
2022/08/27 04:26:17;;;;;;;16.73;12.30;;;;;;;23.90;64.04;100983.22;4942711;29;20192;-66
2022/08/27 04:28:42;;;;;;;14.83;10.50;;;;;;;23.34;66.01;100987.25;4943066;29;20170;-66
2022/08/27 04:31:08;;;;;;;11.37;10.17;;;;;;;22.89;67.60;100983.63;4941787;29;20217;-66
2022/08/27 04:33:34;;;;;;;12.73;11.00;;;;;;;23.01;67.31;100983.16;4942362;29;20453;-66
2022/08/27 04:36:08;;;;;;;13.40;11.33;;;;;;;23.78;64.89;100987.22;4942994;29;20174;-66
2022/08/27 04:38:34;;;;;;;12.67;9.73;;;;;;;23.64;65.38;100984.31;4942388;29;20477;-66
2022/08/27 04:41:23;;;;;;;11.43;8.30;;;;;;;23.13;66.45;100995.16;4942431;29;20456;-65
2022/08/27 04:43:56;;;;;;;14.40;10.00;;;;;;;22.57;69.19;100999.00;4942274;29;20177;-66
2022/08/27 04:46:31;;;;;;;10.77;9.40;;;;;;;23.21;66.89;101002.84;4942358;29;20425;-66
2022/08/27 04:48:58;;;;;;;12.40;9.27;;;;;;;22.71;67.34;100994.03;4942237;29;20847;-66
2022/08/27 04:51:24;;;;;;;10.73;8.87;;;;;;;22.98;66.38;100998.38;4942171;29;20793;-65
2022/08/27 04:53:49;;;;;;;12.57;7.77;;;;;;;23.09;67.03;100993.50;4942059;29;20464;-66
2022/08/27 04:56:17;;;;;;;10.37;8.40;;;;;;;23.21;65.74;100998.38;4942126;29;20169;-66
2022/08/27 04:58:43;;;;;;;10.83;8.10;;;;;;;23.14;66.02;100996.03;4942529;29;20201;-66
2022/08/27 05:01:09;;;;;;;10.33;8.50;;;;;;;23.08;65.98;101010.38;4941901;29;20462;-65
2022/08/27 05:03:34;;;;;;;12.23;8.03;;;;;;;22.88;66.82;101001.38;4925180;29;20178;-64
2022/08/27 05:06:02;;;;;;;9.70;7.90;;;;;;;22.89;66.71;100996.94;4942466;29;20174;-66
2022/08/27 05:08:28;;;;;;;9.93;8.43;;;;;;;22.74;67.92;100998.38;4941789;29;20185;-65
2022/08/27 05:10:54;;;;;;;9.37;7.90;;;;;;;22.54;67.74;101002.63;4941817;29;20422;-65
2022/08/27 05:13:21;;;;;;;8.90;7.90;;;;;;;22.57;68.37;100998.13;4941996;29;20671;-65
2022/08/27 05:15:47;;;;;;;10.40;8.13;;;;;;;22.77;67.64;100998.28;4925408;29;20198;-66
2022/08/27 05:18:13;;;;;;;11.23;7.90;;;;;;;22.84;67.66;100997.13;4941849;29;20507;-65
2022/08/27 05:20:44;;;;;;;11.17;6.73;;;;;;;23.03;67.12;100999.09;4942040;29;20177;-65
2022/08/27 05:23:10;;;;;;;12.10;8.43;;;;;;;23.23;65.69;100997.47;4941399;29;20421;-65
2022/08/27 05:25:40;;;;;;;10.10;6.90;;;;;;;23.26;65.80;101000.00;4941567;29;20425;-65
2022/08/27 05:28:06;;;;;;;9.67;7.83;;;;;;;23.29;64.65;100999.88;4924941;29;20449;-65
2022/08/27 05:30:45;;;;;;;10.03;8.27;;;;;;;22.83;66.83;101011.31;4941642;29;20487;-65
2022/08/27 05:33:13;;;;;;;10.67;8.33;;;;;;;22.74;67.63;101008.16;4942310;29;20531;-67
2022/08/27 05:35:43;;;;;;;11.33;7.83;;;;;;;22.81;66.68;101014.94;4941523;29;20418;-67
2022/08/27 05:38:08;;;;;;;10.97;8.47;;;;;;;22.67;67.57;101015.47;4940522;29;20481;-65
2022/08/27 05:40:34;;;;;;;9.83;7.23;;;;;;;23.21;66.49;101008.16;4940743;29;20737;-66
2022/08/27 05:42:59;;;;;;;8.50;6.70;;;;;;;23.38;65.76;101007.47;4941003;29;20190;-66
2022/08/27 05:45:25;;;;;;;11.20;7.40;;;;;;;22.39;68.19;101020.91;4941330;29;20189;-66
2022/08/27 05:47:50;;;;;;;8.80;6.93;;;;;;;22.68;67.97;101012.75;4940306;29;20184;-66
2022/08/27 05:50:16;;;;;;;8.10;7.40;;;;;;;22.12;68.98;101016.50;4941100;29;20182;-66
2022/08/27 05:52:42;;;;;;;8.80;7.23;;;;;;;23.14;66.46;101010.19;4941057;29;20201;-66
2022/08/27 05:55:07;;;;;;;13.90;8.90;;;;;;;22.57;67.85;101022.03;4940897;29;20425;-65
2022/08/27 05:57:33;;;;;;;8.63;6.93;;;;;;;23.25;65.58;101015.09;4940948;29;20231;-66
2022/08/27 06:02:42;;;;;;;15.13;9.93;;;;;;;22.88;66.56;101021.81;4940850;29;20497;-65
2022/08/27 06:05:08;;;;;;;11.10;9.80;;;;;;;22.73;67.01;101028.53;4940816;29;20430;-65
2022/08/27 06:07:34;;;;;;;12.20;9.60;;;;;;;23.09;65.73;101022.75;4940755;29;20174;-65
2022/08/27 06:09:59;;;;;;;12.43;9.27;;;;;;;22.83;67.62;101024.59;4940947;29;20460;-65
2022/08/27 06:12:25;;;;;;;17.80;12.50;;;;;;;22.31;67.75;101027.34;4941095;29;20213;-66
2022/08/27 06:14:50;;;;;;;15.00;12.77;;;;;;;22.28;68.03;101022.09;4940547;29;20173;-66
2022/08/27 06:17:16;;;;;;;17.20;14.10;;;;;;;21.84;69.63;101019.19;4940687;29;20563;-66
2022/08/27 06:19:42;;;;;;;18.60;12.97;;;;;;;21.59;70.24;101019.13;4941299;29;20528;-65
2022/08/27 06:22:08;;;;;;;22.43;14.60;;;;;;;21.92;69.68;101022.47;4940746;29;20414;-65
2022/08/27 06:24:34;;;;;;;11.47;9.43;;;;;;;22.36;67.67;101025.41;4940449;29;20666;-65
2022/08/27 06:27:00;;;;;;;12.00;9.80;;;;;;;22.41;67.21;101027.91;4941315;29;20414;-66
2022/08/27 06:29:25;;;;;;;16.90;13.73;;;;;;;22.14;67.53;101030.56;4940668;29;20818;-64
2022/08/27 06:31:51;;;;;;;15.00;11.80;;;;;;;22.16;68.49;101034.03;4940587;29;20213;-65
2022/08/27 06:34:17;;;;;;;16.50;12.40;;;;;;;22.67;66.22;101031.41;4940796;29;20169;-64
2022/08/27 06:36:43;;;;;;;13.50;11.27;;;;;;;21.58;69.31;101028.88;4940620;29;20436;-65
2022/08/27 06:39:12;;;;;;;13.57;11.60;;;;;;;22.07;68.96;101033.47;4940785;29;20249;-65
2022/08/27 06:41:37;;;;;;;17.20;11.93;;;;;;;22.00;68.58;101038.13;4941078;29;20632;-65
2022/08/27 06:44:03;;;;;;;15.03;12.33;;;;;;;22.22;67.84;101040.94;4940359;29;20512;-64
2022/08/27 06:46:28;;;;;;;15.70;11.93;;;;;;;22.11;68.12;101035.09;4940425;29;20197;-66
2022/08/27 06:48:56;;;;;;;18.53;12.03;;;;;;;22.23;67.67;101039.13;4941017;29;20169;-66
2022/08/27 06:51:32;;;;;;;19.20;12.30;;;;;;;22.34;67.14;101037.88;4940351;29;20292;-66
2022/08/27 06:54:00;;;;;;;13.87;10.67;;;;;;;22.15;67.58;101034.97;4940551;29;20432;-66
2022/08/27 06:56:25;;;;;;;18.47;11.80;;;;;;;21.68;69.57;101032.09;4944260;29;20694;-64
2022/08/27 06:58:54;;;;;;;17.93;12.93;;;;;;;22.05;68.81;101030.88;4944256;29;20516;-64
2022/08/27 07:01:23;;;;;;;14.70;11.67;;;;;;;22.16;68.52;101022.53;4943662;29;20192;-65
2022/08/27 07:03:49;;;;;;;17.60;11.87;;;;;;;21.50;69.51;101033.50;4927321;29;20432;-63
2022/08/27 07:06:15;;;;;;;18.30;13.70;;;;;;;21.42;70.20;101040.81;4928193;29;20433;-65
2022/08/27 07:08:41;;;;;;;12.70;8.33;;;;;;;22.52;68.49;101033.69;4945412;29;20429;-66
2022/08/27 07:11:08;;;;;;;10.93;9.80;;;;;;;22.17;67.72;101033.09;4943978;29;20413;-64
2022/08/27 07:13:34;;;;;;;15.60;11.00;;;;;;;22.26;67.51;101034.59;4943829;29;20443;-64
2022/08/27 07:16:06;;;;;;;13.03;10.70;;;;;;;22.60;67.37;101033.44;4944199;29;20406;-64
2022/08/27 07:18:33;;;;;;;13.63;10.87;;;;;;;22.31;68.33;101039.72;4943880;29;20181;-64
2022/08/27 07:20:59;;;;;;;16.73;11.47;;;;;;;23.05;65.74;101037.09;4943789;29;20830;-64
2022/08/27 07:23:24;;;;;;;13.90;10.93;;;;;;;22.93;64.87;101043.72;4927011;29;20748;-64
2022/08/27 07:25:50;;;;;;;14.47;10.17;;;;;;;22.53;66.83;101038.09;4943859;29;20429;-64
2022/08/27 07:28:15;;;;;;;15.00;11.20;;;;;;;22.10;68.10;101044.84;4927175;29;20178;-65
2022/08/27 07:30:41;;;;;;;14.10;9.17;;;;;;;22.22;68.44;101048.91;4943539;29;20181;-66
2022/08/27 07:33:07;;;;;;;11.20;8.83;;;;;;;22.49;67.61;101052.41;4943457;29;20209;-65
2022/08/27 07:35:32;;;;;;;15.70;11.23;;;;;;;22.38;66.63;101054.59;4943884;29;20504;-65
2022/08/27 07:37:57;;;;;;;16.60;11.40;;;;;;;21.71;68.78;101050.56;4943619;29;20241;-65
2022/08/27 07:40:23;;;;;;;16.07;11.07;;;;;;;21.07;71.03;101056.88;4943376;29;20197;-65
2022/08/27 07:45:33;;;;;;;16.87;11.17;;;;;;;22.81;64.76;101058.38;4943346;29;20519;-64
2022/08/27 07:47:58;;;;;;;14.87;11.23;;;;;;;22.35;66.49;101065.28;4943162;29;20422;-64
2022/08/27 07:50:24;;;;;;;16.10;10.80;;;;;;;22.08;67.23;101073.22;4943027;29;20216;-65
2022/08/27 07:52:50;;;;;;;15.57;10.50;;;;;;;21.63;68.76;101079.97;4943127;29;20586;-67
2022/08/27 07:55:15;;;;;;;12.47;8.10;;;;;;;22.56;67.36;101069.00;4943601;29;20196;-66
2022/08/27 07:57:41;;;;;;;15.77;10.40;;;;;;;22.40;66.68;101073.13;4942961;29;20422;-66
2022/08/27 08:00:11;;;;;;;16.43;9.90;;;;;;;22.12;67.66;101074.91;4943026;29;20192;-66
2022/08/27 08:02:37;;;;;;;14.43;10.63;;;;;;;22.08;67.43;101073.22;4943212;29;20560;-66
2022/08/27 08:05:04;;;;;;;14.53;9.10;;;;;;;22.39;66.90;101082.00;4942853;29;20784;-67
2022/08/27 08:07:30;;;;;;;18.13;10.90;;;;;;;22.12;67.17;101080.22;4941768;29;20425;-66
2022/08/27 08:09:57;;;;;;;9.87;8.00;;;;;;;23.30;64.50;101081.41;4943325;29;20814;-65
2022/08/27 08:12:22;;;;;;;15.97;9.60;;;;;;;22.22;66.31;101078.09;4942808;29;20268;-66
2022/08/27 08:14:48;;;;;;;15.53;9.33;;;;;;;21.69;68.27;101084.25;4942711;29;20815;-66
2022/08/27 08:17:13;;;;;;;14.20;9.80;;;;;;;22.16;67.29;101089.81;4943080;29;20431;-66
2022/08/27 08:19:39;;;;;;;13.17;9.10;;;;;;;22.37;67.77;101103.31;4942762;29;20543;-65
2022/08/27 08:22:05;;;;;;;15.37;9.20;;;;;;;21.89;67.83;101103.97;4942677;29;20463;-64
2022/08/27 08:24:30;;;;;;;17.53;11.00;;;;;;;21.47;68.86;101100.78;4942602;29;20461;-65
2022/08/27 08:26:56;;;;;;;14.37;10.13;;;;;;;21.94;68.08;101102.03;4942541;29;20173;-64
2022/08/27 08:29:21;;;;;;;13.17;9.13;;;;;;;23.01;63.82;101091.31;4942803;29;20205;-64
2022/08/27 08:31:46;;;;;;;12.03;9.60;;;;;;;22.66;65.25;101101.44;4942432;29;20257;-65
2022/08/27 08:34:12;;;;;;;12.97;9.50;;;;;;;22.56;65.49;101105.34;4942451;29;20212;-65
2022/08/27 08:36:37;;;;;;;12.60;9.83;;;;;;;22.51;64.99;101106.34;4942934;29;20182;-65
2022/08/27 08:39:02;;;;;;;11.40;8.90;;;;;;;22.46;64.84;101103.00;4942292;29;20212;-65
2022/08/27 08:41:39;;;;;;;15.70;9.50;;;;;;;22.08;65.91;101102.44;4942477;29;20248;-64
2022/08/27 08:44:22;;;;;;;14.87;9.57;;;;;;;22.92;64.75;101103.19;4942109;29;20174;-65
2022/08/27 08:46:54;;;;;;;14.10;9.10;;;;;;;22.86;63.87;101098.06;4925493;29;20444;-63
2022/08/27 08:49:31;;;;;;;12.83;9.10;;;;;;;23.05;63.45;101108.91;4925800;29;20713;-61
2022/08/27 08:52:09;;;;;;;7.43;6.60;;;;;;;23.21;63.82;101112.75;4925624;29;20608;-65
2022/08/27 08:54:37;;;;;;;21.87;11.80;;;;;;;22.98;63.24;101102.09;4925453;29;20511;-66
2022/08/27 08:57:21;;;;;;;12.83;8.27;;;;;;;22.93;63.38;101112.00;4925785;29;20669;-66
2022/08/27 08:59:55;;;;;;;10.73;8.87;;;;;;;23.32;61.79;101114.16;4942044;29;20445;-67
2022/08/27 09:02:21;;;;;;;11.50;7.70;;;;;;;23.13;63.69;101114.84;4925447;29;20878;-66
2022/08/27 09:04:46;;;;;;;11.90;8.50;;;;;;;22.64;63.70;101127.22;4941751;29;20436;-66
2022/08/27 09:07:22;;;;;;;13.47;8.17;;;;;;;22.61;65.16;101121.97;4942050;29;20186;-66
2022/08/27 09:10:01;;;;;;;12.67;8.77;;;;;;;22.61;63.24;101128.19;4941885;29;20219;-67
2022/08/27 09:12:31;;;;;;;15.03;9.87;;;;;;;22.54;64.39;101127.53;4941765;29;20919;-66
2022/08/27 09:15:12;;;;;;;10.63;8.13;;;;;;;22.35;64.54;101127.28;4941459;29;20430;-66
2022/08/27 09:17:39;;;;;;;10.80;7.73;;;;;;;21.81;66.17;101131.63;4941411;29;20516;-65
2022/08/27 09:20:06;;;;;;;10.70;8.00;;;;;;;22.82;62.99;101134.50;4941521;29;20421;-66
2022/08/27 09:22:41;;;;;;;9.80;7.87;;;;;;;22.81;63.18;101130.16;4941455;29;20433;-66
2022/08/27 09:25:12;;;;;;;16.70;9.10;;;;;;;22.51;63.84;101132.91;4941294;29;20925;-65
2022/08/27 09:27:40;;;;;;;12.33;9.60;;;;;;;22.48;64.58;101129.50;4924962;29;20428;-66
2022/08/27 09:30:11;;;;;;;14.53;8.53;;;;;;;21.93;66.03;101140.97;4941832;29;20751;-66
2022/08/27 09:32:38;;;;;;;13.20;9.43;;;;;;;21.90;65.92;101134.91;4941237;29;20479;-66
2022/08/27 09:35:07;;;;;;;12.60;9.00;;;;;;;21.91;66.84;101131.34;4941439;29;20417;-65
2022/08/27 09:37:41;;;;;;;14.70;9.23;;;;;;;22.03;65.48;101128.31;4941226;29;20845;-65
2022/08/27 09:40:16;;;;;;;9.13;7.70;;;;;;;22.39;65.62;101138.66;4941526;29;20501;-65
2022/08/27 09:42:52;;;;;;;10.83;8.50;;;;;;;22.93;64.09;101138.59;4924640;29;20834;-67
2022/08/27 09:45:26;;;;;;;12.43;8.97;;;;;;;23.05;63.18;101140.81;4924944;29;20428;-66
2022/08/27 09:48:12;;;;;;;10.97;7.17;;;;;;;22.98;62.27;101140.16;4941003;29;20449;-65
2022/08/27 09:50:45;;;;;;;7.83;7.07;;;;;;;22.54;63.66;101132.84;4941179;29;20500;-65
2022/08/27 09:53:24;;;;;;;12.00;8.30;;;;;;;22.86;63.13;101135.28;4940856;29;20469;-67
2022/08/27 09:56:01;;;;;;;12.47;7.80;;;;;;;22.83;62.90;101136.25;4924695;29;20452;-66
2022/08/27 09:58:31;;;;;;;12.70;8.37;;;;;;;22.75;63.35;101135.66;4941065;29;20673;-66
2022/08/27 10:01:03;;;;;;;11.07;7.63;;;;;;;22.60;63.74;101141.53;4940927;29;20431;-67
2022/08/27 10:03:28;;;;;;;14.03;8.83;;;;;;;22.85;62.72;101136.19;4940662;29;20429;-68
2022/08/27 10:05:54;;;;;;;11.60;8.53;;;;;;;22.81;63.33;101134.56;4940897;29;20486;-66
2022/08/27 10:08:42;;;;;;;14.70;9.27;;;;;;;22.79;62.72;101133.78;4941426;29;20441;-67
2022/08/27 10:11:22;;;;;;;11.20;8.77;;;;;;;22.49;63.09;101137.44;4924055;29;20253;-68
2022/08/27 10:13:56;;;;;;;14.77;9.97;;;;;;;22.90;62.99;101134.25;4924228;29;20417;-67
2022/08/27 10:16:39;;;;;;;14.47;9.80;;;;;;;23.38;61.50;101135.19;4940860;29;20565;-64
2022/08/27 10:19:15;;;;;;;11.00;8.37;;;;;;;23.45;61.39;101133.16;4940980;29;20688;-65
2022/08/27 10:21:48;;;;;;;16.37;9.87;;;;;;;23.08;61.69;101137.16;4924204;29;20468;-65
2022/08/27 10:24:44;;;;;;;12.60;8.77;;;;;;;23.64;60.26;101133.34;4940488;29;20473;-63
2022/08/27 10:27:31;;;;;;;14.80;11.50;;;;;;;22.59;63.19;101129.16;4923000;29;20432;-63
2022/08/27 10:30:18;;;;;;;16.10;10.40;;;;;;;23.47;60.03;101134.84;4940012;29;20423;-64
2022/08/27 10:33:13;;;;;;;9.03;8.10;;;;;;;23.82;58.60;101131.75;4940394;29;20487;-63
2022/08/27 10:35:44;;;;;;;10.80;8.60;;;;;;;22.90;61.19;101136.91;4924398;29;20414;-64
2022/08/27 10:38:13;;;;;;;13.23;8.47;;;;;;;23.30;60.24;101142.59;4940449;29;20417;-67
2022/08/27 10:41:02;;;;;;;15.87;9.60;;;;;;;23.43;60.58;101138.53;4940626;29;20410;-66
2022/08/27 10:43:40;;;;;;;12.20;9.67;;;;;;;24.05;58.18;101138.84;4924000;29;20418;-67
2022/08/27 10:46:28;;;;;;;17.40;10.47;;;;;;;24.04;57.69;101137.09;4940628;29;20813;-66
2022/08/27 10:49:20;;;;;;;12.17;7.60;;;;;;;24.02;59.01;101138.97;4918472;29;20714;-65
2022/08/27 10:52:04;;;;;;;11.40;7.33;;;;;;;24.24;58.25;101138.97;4921433;29;20501;-64
2022/08/27 10:54:50;;;;;;;12.73;8.00;;;;;;;23.09;60.80;101145.09;4921332;29;20418;-65
2022/08/27 10:57:46;;;;;;;10.87;7.60;;;;;;;23.09;61.09;101147.75;4905065;29;20419;-64
2022/08/27 11:00:15;;;;;;;16.23;7.53;;;;;;;23.37;59.25;101142.31;4921398;29;20737;-65
2022/08/27 11:02:52;;;;;;;12.70;7.80;;;;;;;23.56;58.95;101141.63;4905060;29;20437;-66
2022/08/27 11:05:21;;;;;;;11.37;8.23;;;;;;;22.82;60.29;101144.28;4905121;29;20422;-65
2022/08/27 11:07:52;;;;;;;11.50;7.93;;;;;;;22.69;60.97;101150.03;4921241;29;20415;-65
2022/08/27 11:10:29;;;;;;;9.30;7.83;;;;;;;22.61;61.21;101143.22;4904749;29;20522;-66
2022/08/27 11:12:58;;;;;;;11.80;8.50;;;;;;;22.79;60.30;101147.06;4921099;29;20761;-65
2022/08/27 11:15:34;;;;;;;14.03;9.13;;;;;;;23.24;59.01;101150.81;4904818;29;20474;-64
2022/08/27 11:18:24;;;;;;;10.07;7.23;;;;;;;23.81;58.74;101141.50;4904698;29;20417;-67
2022/08/27 11:20:56;;;;;;;11.47;7.07;;;;;;;23.29;59.79;101148.84;4921219;29;20418;-65
2022/08/27 11:23:44;;;;;;;10.00;6.40;;;;;;;22.63;60.42;101154.69;4904546;29;20510;-66
2022/08/27 11:26:11;;;;;;;11.10;6.80;;;;;;;22.93;60.10;101151.88;4904612;29;20505;-66
2022/08/27 11:28:46;;;;;;;10.80;6.70;;;;;;;23.85;57.94;101145.78;4921127;29;20490;-65
2022/08/27 11:31:17;;;;;;;11.40;6.57;;;;;;;23.68;57.03;101146.47;4920256;29;20433;-65